x

West Orca Bay - 8nm Nw Of Hinchinbrook Is , Ak (46060) Wave Buoy

7:50pm - Tue 31st Mar 2015 All times are AKDT. -8 hours from GMT.

  • Sig Wave height 1.6ft
  • Swell Direction
  • Peak Period 9s
  • Average Period 6s
  • Wind
    2mph, 4mph gusts
  • Sea Temp 42°f
  • Air Temp 40°f
  • Sea Pressure 1006.8mb
  • West Orca Bay - 8nm Nw Of Hinchinbrook  Is , Ak
  • West Orca Bay - 8nm Nw Of Hinchinbrook  Is , Ak

More Historic Weather Station data

Upgrade to MSW Pro to gain access to the past 30 days of data for over 8000 Wavebouys and Weather Stations around the globe.

Join Pro

Comparision Forecast

View Surf forecast
   
Tue 03/31 7:50pm 1.6ft 9s 6s 2 4 mph 1006.8mb 42f 40f
6:50pm 1.6ft 11s 5s 4 7 mph 1006.4mb 42f 40f
5:50pm 1.6ft 11s 5s 2 4 mph 1006mb 42f 41f
4:50pm 1.6ft 11s 4s 7 9 mph 1005.5mb 42f 41f
3:50pm 1.6ft 12s 4s 13 16 mph 1004.9mb 42f 41f
2:50pm 1.6ft 10s 5s 13 16 mph 1004.4mb 42f 41f
1:50pm 1.6ft 11s 7s 13 16 mph 1004mb 42f 40f
12:50pm 1.6ft 10s 8s 4 7 mph 1003.6mb 42f 40f
11:50am 1.6ft 11s 8s  -  2 mph 1003mb 42f 38f
10:50am 1.6ft 10s 8s 4 7 mph 1002.3mb 42f 39f
9:50am 2ft 9s 8s 7 9 mph 1002mb 42f 38f
8:50am 2ft 11s 8s 7 9 mph 1001.4mb 42f 40f
7:50am 2.5ft 11s 8s 2
mph
1001.2mb 42f 40f
6:50am 2.5ft 11s 7s 4
mph
1000.9mb 42f 40f
5:50am 1.6ft 12s 6s 4
mph
1000.5mb 42f 40f
4:50am 1.6ft 11s 6s 4
mph
1000.4mb 42f 40f
3:50am 1.6ft 11s 5s 4 7 mph 999.9mb 42f 41f
2:50am 1.6ft 10s 5s 7
mph
999.5mb 42f 41f
1:50am 1.6ft 12s 5s 4 7 mph 999.5mb 42f 41f
12:50am 1.6ft 9s 5s 7 9 mph 999.4mb 42f 41f
Mon 03/30 11:50pm 1.6ft 11s 6s 2 4 mph 999.9mb 42f 41f
10:50pm 2ft 9s 7s 7 9 mph 1000.2mb 42f 41f
9:50pm 2.5ft 11s 8s 7
mph
1000.7mb 42f 42f
8:50pm 2.5ft 11s 8s 7
mph
1001.1mb 42f 42f
7:50pm 2ft 11s 8s 7
mph
1001.3mb 42f 42f
6:50pm 2ft 9s 7s 7 9 mph 1001.8mb 42f 42f
5:50pm 2ft 11s 7s 4
mph
1002.4mb 43f 42f
4:50pm 2ft 11s 7s 2
mph
1003mb 43f 42f
3:50pm 2ft 11s 7s 2
mph
1003.5mb 42f 42f
2:50pm 2ft 11s 6s 7
mph
1003.9mb 42f 42f
1:50pm 2ft 11s 7s 4 7 mph 1004.2mb 42f 41f
12:50pm 2.5ft 11s 6s 4 7 mph 1004.3mb 42f 41f
11:50am 2.5ft 11s 6s 7 9 mph 1004.4mb 42f 41f
10:50am 3ft 10s 6s 7 9 mph 1004.5mb 42f 41f
9:50am 3.5ft 11s 6s 11 13 mph 1004.6mb 42f 41f
8:50am 3.5ft 10s 5s 16 18 mph 1004.5mb 42f 40f
7:50am 3.5ft 10s 6s 16 20 mph 1004.5mb 42f 40f
6:50am 3.5ft 11s 5s 16 18 mph 1004.6mb 42f 40f
5:50am 3.5ft 12s 5s 16 18 mph 1004.8mb 42f 40f
4:50am 3.5ft 11s 5s 18 22 mph 1005mb 42f 39f
3:50am 3.5ft 11s 5s 18 22 mph 1004.9mb 42f 41f
2:50am 3.5ft 11s 5s 16 18 mph 1004.7mb 42f 40f
1:50am 3.5ft 11s 5s 18 22 mph 1004.4mb 42f 40f
12:50am 3.5ft 4s 4s 22 27 mph 1003.8mb 42f 41f
Sun 03/29 11:50pm 4.5ft 5s 4s 25 29 mph 1003.3mb 42f 39f
10:50pm 4ft 11s 5s 27 31 mph 1002.6mb 42f 40f
9:50pm 4ft 11s 5s 20 25 mph 1002.4mb 42f 40f
8:50pm 4.5ft 12s 5s 22 25 mph 1001.9mb 42f 40f
7:50pm 4.5ft 11s 5s 22 29 mph 1001.3mb 42f 41f
6:50pm 4.5ft 11s 5s 22 27 mph 1000.7mb 42f 42f
5:50pm 5ft 11s 5s 20 25 mph 1000.7mb 42f 41f
4:50pm 5ft 12s 5s 27 31 mph 1000.1mb 42f 42f
3:50pm 5ft 13s 5s 22 29 mph 999.8mb 42f 43f
2:50pm 4.5ft 12s 5s 18 22 mph 999.6mb 42f 42f
1:50pm 4.5ft 5s 4s 22 29 mph 998.7mb 42f 42f
12:50pm 4.5ft 5s 4s 29 34 mph 997.4mb 42f 42f
11:50am 4.5ft 4s 4s 25 31 mph 996.9mb 42f 42f
10:50am 4.5ft 11s 5s 22 29 mph 996.3mb 42f 41f
9:50am 4.5ft 11s 5s 22 29 mph 996mb 42f 40f
8:50am 4.5ft 13s 5s 22 27 mph 995.5mb 42f 40f
7:50am 4ft 12s 6s 20 25 mph 995.2mb 42f 40f
6:50am 4.5ft 13s 6s 16 18 mph 994.8mb 42f 40f
5:50am 4.5ft 12s 6s 20 22 mph 994.5mb 42f 41f
4:50am 4.5ft 10s 6s 18 25 mph 994.3mb 42f 41f
3:50am 3.5ft 14s 6s 20 22 mph 994.3mb 42f 41f
2:50am 3.5ft 11s 7s 13 20 mph 994.4mb 42f 42f
1:50am 3ft 11s 5s 18 25 mph 994mb 42f 43f
12:50am 3ft 11s 7s 13 18 mph 994.3mb 42f 42f
Sat 03/28 11:50pm 3.5ft 11s 8s 11 16 mph 994.2mb 42f 43f
10:50pm 4ft 11s 8s 9 11 mph 993.8mb 42f 43f
9:50pm 3.5ft 11s 7s 7 9 mph 994mb 42f 43f
8:50pm 5ft 11s 9s 7
mph
994.2mb 42f 43f
7:50pm 4.5ft 11s 8s 9
mph
994.5mb 42f 43f
6:50pm 4.5ft 10s 9s 7 9 mph 995.5mb 42f 43f
5:50pm 4.5ft 11s 9s 9 11 mph 996.7mb 42f 44f
4:50pm 4.5ft 10s 8s 7 9 mph 998.1mb 42f 42f
3:50pm 5ft 11s 8s 11 13 mph 999.3mb 42f 42f
2:50pm 3.5ft 9s 7s 9 11 mph 1000.4mb 42f 42f
1:50pm 3ft 9s 5s 11
mph
1001.4mb 42f 42f
12:50pm 2.5ft 9s 5s 9 13 mph 1001.9mb 42f 41f
11:50am 2.5ft 7s 4s 11 16 mph 1002.3mb 42f 42f
10:50am 3ft 7s 5s 18 22 mph 1002.7mb 42f 40f
9:50am 2.5ft 8s 4s 18 22 mph 1002.6mb 42f 40f
8:50am 2.5ft 9s 5s 18 25 mph 1003mb 42f 41f
7:50am 3ft 10s 5s 13 16 mph 1003.2mb 42f 41f
6:50am 2.5ft 10s 4s 16 18 mph 1003.2mb 42f 40f
5:50am 3ft 10s 4s 16 18 mph 1003.7mb 42f 40f
4:50am 3.5ft 11s 4s 16 18 mph 1004.1mb 42f 40f